Time;durP1;ratioP1;P1;durP2;ratioP2;P2;SDS_P1;SDS_P2;PMS_P1;PMS_P2;Temp;Humidity;BMP_temperature;BMP_pressure;BME280_temperature;BME280_humidity;BME280_pressure;Samples;Min_cycle;Max_cycle;Signal;HPM_P1;HPM_P2
2023/08/18 00:00:00;;;;;;;16.98;2.92;;;;;;;;;;5056066;28;20082;-38
2023/08/18 00:02:27;;;;;;;24.30;3.78;;;;;;;;;;5065304;28;20391;-41
2023/08/18 00:04:54;;;;;;;21.48;3.13;;;;;;;;;;5059412;28;20368;-39
2023/08/18 00:07:21;;;;;;;14.82;3.15;;;;;;;;;;5065589;28;20190;-41
2023/08/18 00:09:48;;;;;;;12.85;3.33;;;;;;;;;;5059327;28;20033;-36
2023/08/18 00:12:15;;;;;;;20.02;3.47;;;;;;;;;;5072565;28;20032;-36
2023/08/18 00:14:42;;;;;;;14.63;3.00;;;;;;;;;;5063916;28;20108;-36
2023/08/18 00:17:10;;;;;;;18.30;3.03;;;;;;;;;;5060866;28;20036;-36
2023/08/18 00:19:36;;;;;;;37.08;4.20;;;;;;;;;;5057979;28;20059;-35
2023/08/18 00:22:03;;;;;;;16.30;3.50;;;;;;;;;;5053373;28;20025;-36
2023/08/18 00:24:30;;;;;;;21.88;3.35;;;;;;;;;;5052575;28;20059;-36
2023/08/18 00:26:57;;;;;;;19.00;3.70;;;;;;;;;;5067137;28;20479;-37
2023/08/18 00:29:24;;;;;;;17.85;3.63;;;;;;;;;;5062075;28;20029;-38
2023/08/18 00:31:51;;;;;;;10.48;3.10;;;;;;;;;;5062656;28;20103;-36
2023/08/18 00:34:18;;;;;;;13.82;3.17;;;;;;;;;;5068562;28;20036;-38
2023/08/18 00:36:45;;;;;;;16.25;5.00;;;;;;;;;;5051405;28;20522;-38
2023/08/18 00:39:12;;;;;;;17.88;5.43;;;;;;;;;;5051807;28;20099;-38
2023/08/18 00:41:39;;;;;;;22.88;5.03;;;;;;;;;;5052559;28;20395;-38
2023/08/18 00:44:06;;;;;;;22.45;5.90;;;;;;;;;;5065308;28;20363;-38
2023/08/18 00:46:33;;;;;;;15.93;5.45;;;;;;;;;;5057659;28;20043;-38
2023/08/18 00:49:02;;;;;;;15.68;5.10;;;;;;;;;;5060818;28;20017;-37
2023/08/18 00:51:30;;;;;;;21.70;5.45;;;;;;;;;;5061554;28;20034;-38
2023/08/18 00:53:57;;;;;;;25.50;6.30;;;;;;;;;;5071773;28;20056;-38
2023/08/18 00:56:24;;;;;;;17.05;5.78;;;;;;;;;;5059923;28;20451;-37
2023/08/18 00:58:51;;;;;;;16.02;5.60;;;;;;;;;;5063742;28;20044;-37
2023/08/18 01:01:18;;;;;;;21.55;5.90;;;;;;;;;;5065845;28;20522;-37
2023/08/18 01:03:46;;;;;;;14.88;5.25;;;;;;;;;;5063544;28;20025;-38
2023/08/18 01:06:12;;;;;;;22.45;5.68;;;;;;;;;;5066507;28;20025;-38
2023/08/18 01:08:40;;;;;;;20.80;5.90;;;;;;;;;;5062308;28;20032;-37
2023/08/18 01:11:12;;;;;;;17.15;5.50;;;;;;;;;;5059916;28;20027;-37
2023/08/18 01:13:42;;;;;;;22.30;5.68;;;;;;;;;;5071353;28;20493;-36
2023/08/18 01:16:12;;;;;;;23.77;5.10;;;;;;;;;;5071472;28;20028;-36
2023/08/18 01:18:40;;;;;;;14.93;4.65;;;;;;;;;;5059451;28;20032;-37
2023/08/18 01:21:12;;;;;;;20.50;5.63;;;;;;;;;;5057608;28;20111;-38
2023/08/18 01:23:43;;;;;;;25.25;4.82;;;;;;;;;;5053818;28;20069;-36
2023/08/18 01:26:09;;;;;;;17.85;5.18;;;;;;;;;;5070188;28;20038;-36
2023/08/18 01:28:37;;;;;;;18.30;5.20;;;;;;;;;;5071098;28;20509;-38
2023/08/18 01:31:07;;;;;;;20.35;5.28;;;;;;;;;;5056838;28;20434;-37
2023/08/18 01:34:10;;;;;;;19.30;5.65;;;;;;;;;;5057747;28;20033;-37
2023/08/18 01:36:38;;;;;;;18.15;5.15;;;;;;;;;;5068258;28;20507;-38
2023/08/18 01:39:10;;;;;;;18.52;4.68;;;;;;;;;;5049574;28;20037;-36
2023/08/18 01:41:37;;;;;;;20.02;5.38;;;;;;;;;;5051657;28;20028;-37
2023/08/18 01:44:06;;;;;;;12.55;4.35;;;;;;;;;;5058217;28;20386;-37
2023/08/18 01:46:33;;;;;;;13.02;4.35;;;;;;;;;;5065443;28;20036;-36
2023/08/18 01:49:00;;;;;;;15.23;4.80;;;;;;;;;;5056040;28;20043;-37
2023/08/18 01:51:27;;;;;;;15.05;4.88;;;;;;;;;;5057318;28;20067;-36
2023/08/18 01:53:54;;;;;;;16.45;4.75;;;;;;;;;;5051906;28;20044;-36
2023/08/18 01:56:21;;;;;;;14.50;4.30;;;;;;;;;;5067313;28;20029;-37
2023/08/18 01:58:48;;;;;;;14.05;5.05;;;;;;;;;;5066613;28;20821;-36
2023/08/18 02:01:15;;;;;;;11.45;3.97;;;;;;;;;;5067982;28;20028;-36
2023/08/18 02:03:42;;;;;;;21.13;4.78;;;;;;;;;;5067496;28;20031;-36
2023/08/18 02:06:09;;;;;;;12.00;4.25;;;;;;;;;;5063590;28;20029;-36
2023/08/18 02:08:36;;;;;;;15.57;4.50;;;;;;;;;;5058790;28;20102;-37
2023/08/18 02:11:06;;;;;;;14.07;3.83;;;;;;;;;;5058903;28;20486;-37
2023/08/18 02:13:34;;;;;;;14.43;4.50;;;;;;;;;;5057343;28;20035;-37
2023/08/18 02:16:01;;;;;;;13.20;4.28;;;;;;;;;;5058555;28;20040;-37
2023/08/18 02:18:28;;;;;;;13.80;4.18;;;;;;;;;;5058539;28;20039;-38
2023/08/18 02:20:56;;;;;;;14.73;4.65;;;;;;;;;;5062297;28;20917;-38
2023/08/18 02:23:23;;;;;;;17.20;4.63;;;;;;;;;;5063363;28;20082;-37
2023/08/18 02:25:50;;;;;;;13.80;4.13;;;;;;;;;;5065161;28;20025;-37
2023/08/18 02:28:18;;;;;;;10.48;3.58;;;;;;;;;;5063703;28;20029;-38
2023/08/18 02:30:45;;;;;;;11.02;4.20;;;;;;;;;;5059093;28;20116;-37
2023/08/18 02:33:12;;;;;;;11.25;3.70;;;;;;;;;;5055212;28;20028;-37
2023/08/18 02:35:42;;;;;;;11.60;4.22;;;;;;;;;;5054801;28;20045;-37
2023/08/18 02:38:11;;;;;;;10.15;3.83;;;;;;;;;;5054905;28;20116;-37
2023/08/18 02:40:39;;;;;;;12.45;4.03;;;;;;;;;;5055016;28;20475;-37
2023/08/18 02:43:06;;;;;;;12.63;3.80;;;;;;;;;;5055045;28;20029;-37
2023/08/18 02:45:33;;;;;;;10.25;3.65;;;;;;;;;;5054874;28;20029;-36
2023/08/18 02:48:00;;;;;;;11.07;3.90;;;;;;;;;;5054945;28;20102;-36
2023/08/18 02:50:27;;;;;;;13.43;3.88;;;;;;;;;;5054876;28;20032;-36
2023/08/18 02:52:54;;;;;;;11.13;3.85;;;;;;;;;;5054805;28;20029;-37
2023/08/18 02:55:21;;;;;;;13.68;4.18;;;;;;;;;;5054801;28;20043;-36
2023/08/18 02:57:48;;;;;;;10.18;3.40;;;;;;;;;;5054617;28;20033;-37
2023/08/18 03:00:15;;;;;;;9.73;4.05;;;;;;;;;;5054799;28;20032;-37
2023/08/18 03:02:42;;;;;;;9.82;3.53;;;;;;;;;;5054539;28;20045;-37
2023/08/18 03:05:09;;;;;;;14.50;3.75;;;;;;;;;;5054554;28;20535;-37
2023/08/18 03:07:36;;;;;;;12.02;3.95;;;;;;;;;;5054630;28;20033;-37
2023/08/18 03:10:03;;;;;;;7.78;3.28;;;;;;;;;;5054630;28;20029;-37
2023/08/18 03:12:30;;;;;;;12.10;3.60;;;;;;;;;;5054592;28;20051;-37
2023/08/18 03:14:57;;;;;;;9.80;3.63;;;;;;;;;;5054423;28;20065;-37
2023/08/18 03:17:24;;;;;;;11.02;3.28;;;;;;;;;;5054435;28;20083;-37
2023/08/18 03:19:51;;;;;;;9.88;3.33;;;;;;;;;;5054353;28;20513;-37
2023/08/18 03:22:17;;;;;;;10.13;3.45;;;;;;;;;;5054336;28;20450;-38
2023/08/18 03:24:44;;;;;;;13.65;3.20;;;;;;;;;;5054247;28;20092;-38
2023/08/18 03:27:11;;;;;;;8.13;3.65;;;;;;;;;;5054559;28;20025;-38
2023/08/18 03:29:38;;;;;;;6.88;3.20;;;;;;;;;;5074271;28;20040;-38
2023/08/18 03:32:06;;;;;;;8.23;3.38;;;;;;;;;;5074125;28;20448;-38
2023/08/18 03:34:33;;;;;;;9.85;3.53;;;;;;;;;;5071350;28;20454;-38
2023/08/18 03:37:00;;;;;;;15.02;3.60;;;;;;;;;;5073859;28;20053;-38
2023/08/18 03:39:27;;;;;;;9.23;3.58;;;;;;;;;;5074013;28;20085;-38
2023/08/18 03:41:54;;;;;;;6.97;3.03;;;;;;;;;;5074011;28;20024;-38
2023/08/18 03:44:21;;;;;;;7.97;3.38;;;;;;;;;;5073798;28;20139;-38
2023/08/18 03:46:48;;;;;;;6.90;2.50;;;;;;;;;;5073941;28;20059;-38
2023/08/18 03:49:15;;;;;;;9.30;3.10;;;;;;;;;;5073863;28;20508;-38
2023/08/18 03:51:42;;;;;;;10.32;3.00;;;;;;;;;;5073824;28;20139;-38
2023/08/18 03:54:09;;;;;;;9.35;3.47;;;;;;;;;;5073743;28;20031;-38
2023/08/18 03:56:36;;;;;;;11.88;3.42;;;;;;;;;;5073720;28;20028;-38
2023/08/18 03:59:03;;;;;;;9.20;3.35;;;;;;;;;;5073702;28;20548;-38
2023/08/18 04:01:31;;;;;;;8.60;3.10;;;;;;;;;;5073706;28;20028;-38
2023/08/18 04:04:00;;;;;;;10.02;2.70;;;;;;;;;;5073408;28;20029;-38
2023/08/18 04:06:27;;;;;;;9.20;2.85;;;;;;;;;;5073649;28;20078;-38
2023/08/18 04:09:20;;;;;;;9.45;2.78;;;;;;;;;;5073533;28;20044;-38
2023/08/18 04:11:47;;;;;;;8.48;2.97;;;;;;;;;;5073176;28;20496;-38
2023/08/18 04:14:16;;;;;;;7.55;3.35;;;;;;;;;;5073480;28;20033;-38
2023/08/18 04:16:44;;;;;;;6.65;2.80;;;;;;;;;;5073287;28;20036;-38
2023/08/18 04:19:12;;;;;;;6.85;2.80;;;;;;;;;;5073203;28;20036;-38
2023/08/18 04:21:39;;;;;;;8.30;2.75;;;;;;;;;;5073234;28;20107;-39
2023/08/18 04:24:06;;;;;;;5.90;2.33;;;;;;;;;;5073175;28;20028;-38
2023/08/18 04:26:35;;;;;;;7.13;2.67;;;;;;;;;;5073180;28;20043;-38
2023/08/18 04:29:03;;;;;;;7.10;2.85;;;;;;;;;;5073121;28;20036;-38
2023/08/18 04:31:30;;;;;;;6.15;2.65;;;;;;;;;;5073113;28;20029;-38
2023/08/18 04:33:58;;;;;;;7.88;2.90;;;;;;;;;;5072824;28;20039;-38
2023/08/18 04:36:24;;;;;;;6.45;2.22;;;;;;;;;;5072811;28;20079;-38
2023/08/18 04:38:51;;;;;;;7.40;2.58;;;;;;;;;;5072876;28;20032;-38
2023/08/18 04:41:18;;;;;;;5.43;2.47;;;;;;;;;;5072891;28;20033;-38
2023/08/18 04:43:45;;;;;;;5.30;2.47;;;;;;;;;;5071585;28;20027;-38
2023/08/18 04:46:12;;;;;;;5.20;2.35;;;;;;;;;;5072388;28;20108;-38
2023/08/18 04:48:39;;;;;;;7.00;2.42;;;;;;;;;;5072718;28;20521;-37
2023/08/18 04:51:06;;;;;;;5.47;2.63;;;;;;;;;;5072664;28;20025;-38
2023/08/18 04:53:33;;;;;;;4.25;1.98;;;;;;;;;;5072530;28;20082;-38
2023/08/18 04:56:03;;;;;;;5.03;2.25;;;;;;;;;;5072548;28;20111;-39
2023/08/18 04:58:30;;;;;;;6.68;2.40;;;;;;;;;;5072409;28;20063;-37
2023/08/18 05:01:00;;;;;;;5.22;2.38;;;;;;;;;;5072428;28;20033;-38
2023/08/18 05:03:27;;;;;;;6.70;2.80;;;;;;;;;;5072107;28;20428;-38
2023/08/18 05:06:02;;;;;;;4.75;1.95;;;;;;;;;;5072441;28;20016;-38
2023/08/18 05:08:29;;;;;;;4.05;2.22;;;;;;;;;;5072253;28;20032;-38
2023/08/18 05:11:04;;;;;;;5.10;2.22;;;;;;;;;;5072346;28;20024;-38
2023/08/18 05:13:31;;;;;;;4.85;2.40;;;;;;;;;;5072008;28;20086;-38
2023/08/18 05:16:03;;;;;;;3.65;2.10;;;;;;;;;;5072181;28;20033;-38
2023/08/18 05:18:30;;;;;;;4.47;2.03;;;;;;;;;;5072175;28;20040;-38
2023/08/18 05:20:57;;;;;;;5.88;2.50;;;;;;;;;;5072176;28;20032;-38
2023/08/18 05:23:25;;;;;;;5.22;1.77;;;;;;;;;;5071985;28;20062;-38
2023/08/18 05:25:56;;;;;;;4.03;1.88;;;;;;;;;;5072142;28;20732;-38
2023/08/18 05:28:24;;;;;;;3.90;1.83;;;;;;;;;;5071908;28;20078;-38
2023/08/18 05:30:52;;;;;;;3.65;1.80;;;;;;;;;;5071876;28;20035;-38
2023/08/18 05:33:19;;;;;;;7.13;2.30;;;;;;;;;;5071881;28;20060;-37
2023/08/18 05:35:47;;;;;;;4.82;2.10;;;;;;;;;;5071697;28;20624;-37
2023/08/18 05:38:14;;;;;;;4.53;2.22;;;;;;;;;;5071724;28;20494;-37
2023/08/18 05:40:43;;;;;;;5.30;2.42;;;;;;;;;;5071846;28;20021;-37
2023/08/18 05:43:11;;;;;;;4.35;2.03;;;;;;;;;;5071723;28;20020;-37
2023/08/18 05:45:38;;;;;;;6.43;2.10;;;;;;;;;;5071678;28;20119;-37
2023/08/18 05:48:05;;;;;;;4.40;2.00;;;;;;;;;;5071764;28;20394;-36
2023/08/18 05:50:32;;;;;;;4.28;1.92;;;;;;;;;;5071730;28;20486;-37
2023/08/18 05:53:02;;;;;;;3.45;1.83;;;;;;;;;;5071680;28;20021;-37
2023/08/18 05:55:29;;;;;;;3.33;1.65;;;;;;;;;;5071696;28;20565;-37
2023/08/18 05:57:58;;;;;;;3.25;1.50;;;;;;;;;;5070937;28;20024;-36
2023/08/18 06:00:25;;;;;;;5.20;1.90;;;;;;;;;;5071636;28;20039;-37
2023/08/18 06:02:53;;;;;;;3.97;1.90;;;;;;;;;;5054543;28;20068;-38
2023/08/18 06:05:21;;;;;;;5.47;1.83;;;;;;;;;;5051492;28;20028;-37
2023/08/18 06:07:48;;;;;;;5.43;2.05;;;;;;;;;;5051473;28;20036;-38
2023/08/18 06:10:15;;;;;;;4.07;1.70;;;;;;;;;;5051427;28;20021;-38
2023/08/18 06:12:41;;;;;;;4.78;1.90;;;;;;;;;;5051330;28;20029;-38
2023/08/18 06:15:09;;;;;;;4.10;1.52;;;;;;;;;;5051317;28;20127;-36
2023/08/18 06:17:36;;;;;;;4.47;1.95;;;;;;;;;;5051349;28;20079;-37
2023/08/18 06:20:03;;;;;;;3.25;1.60;;;;;;;;;;5051362;28;20083;-37
2023/08/18 06:22:30;;;;;;;3.88;1.73;;;;;;;;;;5051191;28;20029;-38
2023/08/18 06:24:57;;;;;;;3.38;1.80;;;;;;;;;;5051202;28;20036;-38
2023/08/18 06:27:24;;;;;;;3.90;1.70;;;;;;;;;;5051320;28;20029;-37
2023/08/18 06:29:52;;;;;;;3.47;1.98;;;;;;;;;;5051336;28;20040;-38
2023/08/18 06:32:19;;;;;;;3.78;1.83;;;;;;;;;;5051227;28;20494;-38
2023/08/18 06:34:46;;;;;;;4.47;1.92;;;;;;;;;;5051139;28;20025;-37
2023/08/18 06:37:13;;;;;;;3.58;1.42;;;;;;;;;;5051094;28;20068;-36
2023/08/18 06:39:40;;;;;;;3.40;1.55;;;;;;;;;;5051114;28;20033;-37
2023/08/18 06:42:07;;;;;;;3.50;1.70;;;;;;;;;;5051246;28;20120;-36
2023/08/18 06:44:34;;;;;;;2.83;1.58;;;;;;;;;;5051126;28;20025;-36
2023/08/18 06:47:02;;;;;;;3.00;1.50;;;;;;;;;;5051491;28;20025;-36
2023/08/18 06:49:29;;;;;;;3.88;1.52;;;;;;;;;;5051183;28;20445;-37
2023/08/18 06:51:55;;;;;;;3.40;1.55;;;;;;;;;;5050999;28;20573;-38
2023/08/18 06:54:22;;;;;;;4.10;1.80;;;;;;;;;;5051029;28;20628;-37
2023/08/18 06:56:49;;;;;;;4.00;1.40;;;;;;;;;;5051115;28;20029;-37
2023/08/18 06:59:16;;;;;;;3.72;1.50;;;;;;;;;;5050987;28;20029;-37
2023/08/18 07:01:43;;;;;;;3.92;1.60;;;;;;;;;;5050874;28;20071;-39
2023/08/18 07:04:12;;;;;;;3.95;1.45;;;;;;;;;;5050846;28;20064;-37
2023/08/18 07:06:42;;;;;;;3.70;1.67;;;;;;;;;;5051192;28;20112;-37
2023/08/18 07:09:09;;;;;;;3.00;1.40;;;;;;;;;;5053412;28;20387;-38
2023/08/18 07:11:37;;;;;;;2.13;1.23;;;;;;;;;;5054599;28;20017;-38
2023/08/18 07:14:04;;;;;;;2.97;1.40;;;;;;;;;;5054523;28;20024;-37
2023/08/18 07:16:31;;;;;;;1.83;1.20;;;;;;;;;;5053517;28;20037;-37
2023/08/18 07:18:58;;;;;;;3.60;1.50;;;;;;;;;;5054389;28;20048;-37
2023/08/18 07:21:25;;;;;;;3.22;1.27;;;;;;;;;;5054356;28;20477;-36
2023/08/18 07:23:55;;;;;;;3.92;1.50;;;;;;;;;;5054183;28;20029;-37
2023/08/18 07:26:22;;;;;;;2.33;1.30;;;;;;;;;;5054208;28;20039;-36
2023/08/18 07:28:49;;;;;;;2.63;1.42;;;;;;;;;;5054283;28;20064;-37
2023/08/18 07:31:17;;;;;;;3.58;1.40;;;;;;;;;;5054159;28;20436;-37
2023/08/18 07:33:44;;;;;;;2.25;1.40;;;;;;;;;;5054312;28;20108;-37
2023/08/18 07:36:11;;;;;;;2.92;1.60;;;;;;;;;;5054065;28;20503;-36
2023/08/18 07:38:38;;;;;;;3.05;1.23;;;;;;;;;;5053998;28;20493;-37
2023/08/18 07:41:05;;;;;;;2.67;1.50;;;;;;;;;;5052709;28;20033;-38
2023/08/18 07:43:32;;;;;;;3.33;1.85;;;;;;;;;;5053828;28;20069;-37
2023/08/18 07:45:59;;;;;;;2.35;1.20;;;;;;;;;;5053967;28;20028;-38
2023/08/18 07:48:26;;;;;;;2.97;1.50;;;;;;;;;;5053963;28;20033;-37
2023/08/18 07:50:53;;;;;;;3.10;1.35;;;;;;;;;;5053921;28;20075;-37
2023/08/18 07:53:20;;;;;;;2.58;1.33;;;;;;;;;;5053759;28;20074;-38
2023/08/18 07:55:47;;;;;;;4.50;1.15;;;;;;;;;;5053792;28;20070;-38
2023/08/18 07:58:14;;;;;;;3.10;1.20;;;;;;;;;;5053705;28;20029;-38
2023/08/18 08:00:42;;;;;;;3.22;1.67;;;;;;;;;;5053722;28;20104;-38
2023/08/18 08:03:09;;;;;;;2.30;1.20;;;;;;;;;;5053582;28;20028;-38
2023/08/18 08:05:36;;;;;;;2.83;1.48;;;;;;;;;;5053641;28;20029;-37
2023/08/18 08:08:03;;;;;;;2.88;1.48;;;;;;;;;;5053522;28;20025;-37
2023/08/18 08:10:30;;;;;;;2.28;1.30;;;;;;;;;;5053583;28;20024;-37
2023/08/18 08:12:57;;;;;;;2.25;1.23;;;;;;;;;;5053306;28;20499;-38
2023/08/18 08:15:24;;;;;;;2.42;1.30;;;;;;;;;;5053355;28;20103;-37
2023/08/18 08:17:51;;;;;;;2.50;1.20;;;;;;;;;;5053319;28;20021;-37
2023/08/18 08:20:18;;;;;;;1.92;1.10;;;;;;;;;;5052437;28;20017;-37
2023/08/18 08:22:46;;;;;;;3.17;1.50;;;;;;;;;;5053349;28;20025;-37
2023/08/18 08:25:13;;;;;;;2.85;1.20;;;;;;;;;;5053202;28;20479;-37
2023/08/18 08:27:40;;;;;;;3.20;1.50;;;;;;;;;;5053231;28;20024;-37
2023/08/18 08:30:08;;;;;;;3.50;1.50;;;;;;;;;;5053145;28;20021;-37
2023/08/18 08:32:35;;;;;;;2.72;1.33;;;;;;;;;;5053132;28;20021;-37
2023/08/18 08:35:02;;;;;;;3.20;1.40;;;;;;;;;;5053028;28;20021;-37
2023/08/18 08:37:29;;;;;;;1.48;1.13;;;;;;;;;;5052881;28;20041;-37
2023/08/18 08:39:56;;;;;;;2.75;1.25;;;;;;;;;;5052894;28;20067;-37
2023/08/18 08:42:23;;;;;;;2.13;0.98;;;;;;;;;;5052953;28;20028;-37
2023/08/18 08:44:51;;;;;;;2.85;1.48;;;;;;;;;;5052836;28;20029;-37
2023/08/18 08:47:21;;;;;;;1.92;1.15;;;;;;;;;;5052845;28;20381;-37
2023/08/18 08:49:53;;;;;;;2.22;1.10;;;;;;;;;;5052777;28;20029;-37
2023/08/18 08:52:20;;;;;;;1.87;1.13;;;;;;;;;;5052827;28;20083;-37
2023/08/18 08:54:59;;;;;;;3.75;1.15;;;;;;;;;;5052676;28;20028;-37
2023/08/18 08:57:26;;;;;;;2.47;1.25;;;;;;;;;;5052655;28;20017;-37
2023/08/18 08:59:53;;;;;;;2.85;1.45;;;;;;;;;;5052558;28;20111;-37
2023/08/18 09:02:20;;;;;;;2.30;1.10;;;;;;;;;;5052556;28;20025;-37
2023/08/18 09:04:47;;;;;;;2.90;1.38;;;;;;;;;;5054859;28;20732;-37
2023/08/18 09:07:14;;;;;;;2.97;1.20;;;;;;;;;;5057686;28;20016;-37
2023/08/18 09:09:42;;;;;;;2.83;1.50;;;;;;;;;;5052375;28;20033;-37
2023/08/18 09:12:10;;;;;;;3.17;1.30;;;;;;;;;;5063342;28;20037;-37
2023/08/18 09:14:40;;;;;;;2.15;0.98;;;;;;;;;;5072220;28;20020;-38
2023/08/18 09:17:07;;;;;;;2.58;1.10;;;;;;;;;;5065724;28;20095;-37
2023/08/18 09:19:35;;;;;;;4.20;1.27;;;;;;;;;;5072093;28;20036;-37
2023/08/18 09:22:05;;;;;;;2.33;1.08;;;;;;;;;;5066886;28;20112;-37
2023/08/18 09:24:35;;;;;;;2.30;1.00;;;;;;;;;;5065215;28;20040;-37
2023/08/18 09:27:10;;;;;;;6.95;1.30;;;;;;;;;;5060353;28;20036;-37
2023/08/18 09:29:36;;;;;;;2.72;1.25;;;;;;;;;;5061225;28;20036;-37
2023/08/18 09:32:04;;;;;;;3.80;1.13;;;;;;;;;;5060996;28;20100;-38
2023/08/18 09:34:32;;;;;;;4.18;1.50;;;;;;;;;;5059972;28;20020;-37
2023/08/18 09:36:59;;;;;;;3.40;1.25;;;;;;;;;;5061112;28;20518;-37
2023/08/18 09:39:26;;;;;;;4.45;1.35;;;;;;;;;;5061769;28;20029;-37
2023/08/18 09:41:53;;;;;;;4.95;1.20;;;;;;;;;;5067950;28;20128;-37
2023/08/18 09:44:21;;;;;;;4.00;1.10;;;;;;;;;;5071402;28;20402;-37
2023/08/18 09:46:55;;;;;;;8.02;1.27;;;;;;;;;;5065426;28;20028;-35
2023/08/18 09:49:23;;;;;;;7.38;1.25;;;;;;;;;;5071222;28;20029;-34
2023/08/18 09:51:54;;;;;;;7.63;1.30;;;;;;;;;;5071200;28;20386;-34
2023/08/18 09:54:23;;;;;;;4.47;1.20;;;;;;;;;;5070115;28;20454;-34
2023/08/18 09:56:51;;;;;;;3.03;1.10;;;;;;;;;;5071252;28;20078;-34
2023/08/18 09:59:26;;;;;;;4.18;1.20;;;;;;;;;;5071209;28;20051;-35
2023/08/18 10:01:53;;;;;;;3.30;1.15;;;;;;;;;;5071402;28;20029;-35
2023/08/18 10:04:25;;;;;;;3.42;0.90;;;;;;;;;;5069912;28;20070;-35
2023/08/18 10:06:55;;;;;;;4.38;1.20;;;;;;;;;;5071416;28;20562;-35
2023/08/18 10:09:27;;;;;;;10.70;1.30;;;;;;;;;;5062036;28;20056;-36
2023/08/18 10:11:53;;;;;;;;;;;;;;;;;;5069743;28;20062;-35
2023/08/18 10:14:22;;;;;;;12.13;1.45;;;;;;;;;;5069890;28;19904;-34
2023/08/18 10:16:52;;;;;;;6.63;1.45;;;;;;;;;;5071383;28;20021;-35
2023/08/18 10:19:39;;;;;;;2.80;1.20;;;;;;;;;;5071206;28;20513;-36
2023/08/18 10:22:07;;;;;;;5.93;1.30;;;;;;;;;;5070645;28;20028;-34
2023/08/18 10:24:37;;;;;;;9.98;1.45;;;;;;;;;;5069484;28;20021;-34
2023/08/18 10:27:07;;;;;;;4.05;1.23;;;;;;;;;;5066902;28;20032;-34
2023/08/18 10:29:36;;;;;;;3.55;1.10;;;;;;;;;;5058895;28;20033;-35
2023/08/18 10:32:09;;;;;;;4.18;1.13;;;;;;;;;;5051189;28;20029;-36
2023/08/18 10:34:38;;;;;;;3.45;1.20;;;;;;;;;;5050931;28;20032;-34
2023/08/18 10:37:07;;;;;;;3.38;1.00;;;;;;;;;;5049290;28;20068;-34
2023/08/18 10:39:36;;;;;;;3.88;1.25;;;;;;;;;;5050896;28;20120;-34
2023/08/18 10:42:07;;;;;;;3.75;1.30;;;;;;;;;;5056951;28;20031;-34
2023/08/18 10:44:35;;;;;;;5.13;1.23;;;;;;;;;;5074337;28;20031;-36
2023/08/18 10:47:02;;;;;;;3.90;0.90;;;;;;;;;;5073245;28;20490;-35
2023/08/18 10:49:30;;;;;;;2.53;1.15;;;;;;;;;;5074653;28;20039;-36
2023/08/18 10:51:57;;;;;;;3.80;1.10;;;;;;;;;;5074590;28;20386;-35
2023/08/18 10:54:24;;;;;;;3.63;1.10;;;;;;;;;;5074483;28;20546;-36
2023/08/18 10:56:51;;;;;;;14.05;1.75;;;;;;;;;;5072909;28;20035;-36
2023/08/18 10:59:19;;;;;;;4.57;1.10;;;;;;;;;;5074539;28;20063;-37
2023/08/18 11:01:46;;;;;;;2.83;0.85;;;;;;;;;;5073347;28;20028;-36
2023/08/18 11:04:15;;;;;;;6.15;1.35;;;;;;;;;;5074516;28;20107;-36
2023/08/18 11:06:42;;;;;;;3.22;1.17;;;;;;;;;;5073864;28;20024;-35
2023/08/18 11:09:09;;;;;;;2.35;1.17;;;;;;;;;;5063318;28;20037;-39
2023/08/18 11:11:38;;;;;;;6.25;1.17;;;;;;;;;;5066542;28;20082;-35
2023/08/18 11:14:06;;;;;;;45.42;3.70;;;;;;;;;;5064568;28;20028;-43
2023/08/18 11:16:36;;;;;;;23.30;2.60;;;;;;;;;;5067015;28;20027;-34
2023/08/18 11:19:04;;;;;;;39.03;3.53;;;;;;;;;;5067626;28;20098;-35
2023/08/18 11:21:32;;;;;;;29.88;2.58;;;;;;;;;;5063867;28;20544;-36
2023/08/18 11:24:00;;;;;;;19.45;2.55;;;;;;;;;;5058763;28;20075;-34
2023/08/18 11:26:27;;;;;;;17.83;2.50;;;;;;;;;;5062334;28;20024;-35
2023/08/18 11:28:54;;;;;;;15.38;2.20;;;;;;;;;;5061555;28;20039;-33
2023/08/18 11:31:21;;;;;;;21.17;2.63;;;;;;;;;;5067628;28;20032;-33
2023/08/18 11:33:48;;;;;;;17.10;2.83;;;;;;;;;;5061875;28;20025;-44
2023/08/18 11:36:15;;;;;;;440.55;44.55;;;;;;;;;;5056310;28;20048;-41
2023/08/18 11:38:42;;;;;;;196.82;17.55;;;;;;;;;;5056210;28;20045;-43
2023/08/18 11:41:09;;;;;;;108.72;11.40;;;;;;;;;;5053544;28;20029;-35
2023/08/18 11:43:36;;;;;;;113.78;11.40;;;;;;;;;;5053629;28;20033;-35
2023/08/18 11:46:04;;;;;;;42.42;7.00;;;;;;;;;;5059889;28;20055;-35
2023/08/18 11:48:31;;;;;;;120.35;11.32;;;;;;;;;;5061522;28;21567;-37
2023/08/18 11:50:59;;;;;;;89.57;9.85;;;;;;;;;;5058536;28;20079;-37
2023/08/18 11:53:28;;;;;;;111.75;12.15;;;;;;;;;;5058552;28;20037;-35
2023/08/18 11:55:57;;;;;;;123.75;12.25;;;;;;;;;;5065737;28;20048;-34
2023/08/18 11:58:24;;;;;;;91.65;12.38;;;;;;;;;;5073628;28;20163;-35
2023/08/18 12:00:51;;;;;;;72.68;11.32;;;;;;;;;;5057065;28;20094;-35
2023/08/18 12:03:23;;;;;;;71.60;10.23;;;;;;;;;;5053164;28;20025;-35
2023/08/18 12:05:50;;;;;;;61.00;8.60;;;;;;;;;;5052075;28;20108;-35
2023/08/18 12:08:17;;;;;;;64.25;8.82;;;;;;;;;;5059916;28;20028;-36
2023/08/18 12:10:48;;;;;;;53.30;8.93;;;;;;;;;;5061937;28;20070;-35
2023/08/18 12:13:15;;;;;;;73.88;9.55;;;;;;;;;;5064730;28;20126;-35
2023/08/18 12:15:42;;;;;;;57.40;9.02;;;;;;;;;;5073234;28;20079;-33
2023/08/18 12:18:09;;;;;;;48.50;7.85;;;;;;;;;;5067011;28;20024;-34
2023/08/18 12:20:36;;;;;;;46.53;7.90;;;;;;;;;;5062093;28;20017;-34
2023/08/18 12:23:06;;;;;;;48.47;8.32;;;;;;;;;;5065581;28;20047;-41
2023/08/18 12:25:33;;;;;;;51.00;7.97;;;;;;;;;;5060407;28;20609;-33
2023/08/18 12:28:00;;;;;;;56.28;8.38;;;;;;;;;;5052812;28;20037;-35
2023/08/18 12:30:27;;;;;;;46.70;8.10;;;;;;;;;;5058114;28;20025;-34
2023/08/18 12:32:54;;;;;;;40.08;7.07;;;;;;;;;;5052913;28;20441;-35
2023/08/18 12:35:21;;;;;;;50.00;7.30;;;;;;;;;;5052629;28;20031;-35
2023/08/18 12:37:49;;;;;;;45.85;7.82;;;;;;;;;;5052815;28;20063;-35
2023/08/18 12:40:16;;;;;;;46.95;7.65;;;;;;;;;;5055174;28;20033;-36
2023/08/18 12:42:43;;;;;;;37.30;6.28;;;;;;;;;;5055191;28;20127;-35
2023/08/18 12:45:10;;;;;;;45.17;5.88;;;;;;;;;;5052656;28;20100;-36
2023/08/18 12:47:38;;;;;;;42.53;6.25;;;;;;;;;;5066509;28;20075;-36
2023/08/18 12:50:05;;;;;;;36.53;6.15;;;;;;;;;;5072499;28;20382;-36
2023/08/18 12:52:32;;;;;;;30.02;6.25;;;;;;;;;;5068577;28;20024;-35
2023/08/18 12:54:58;;;;;;;36.17;6.28;;;;;;;;;;5055039;28;20055;-35
2023/08/18 12:57:26;;;;;;;28.98;5.43;;;;;;;;;;5054987;28;20036;-33
2023/08/18 12:59:53;;;;;;;36.50;5.45;;;;;;;;;;5052179;28;20069;-35
2023/08/18 13:02:20;;;;;;;35.42;5.55;;;;;;;;;;5060510;28;20032;-34
2023/08/18 13:04:47;;;;;;;33.00;5.55;;;;;;;;;;5065935;28;20036;-46
2023/08/18 13:07:13;;;;;;;31.15;4.53;;;;;;;;;;5053030;28;20467;-46
2023/08/18 13:09:40;;;;;;;30.80;5.18;;;;;;;;;;5050878;28;20025;-46
2023/08/18 13:12:08;;;;;;;29.45;4.05;;;;;;;;;;5059422;28;20062;-47
2023/08/18 13:14:35;;;;;;;28.02;4.35;;;;;;;;;;5066057;28;20036;-47
2023/08/18 13:17:02;;;;;;;20.35;2.67;;;;;;;;;;5071880;28;20026;-46
2023/08/18 13:19:30;;;;;;;16.15;3.15;;;;;;;;;;5071922;28;20033;-46
2023/08/18 13:21:57;;;;;;;33.78;3.13;;;;;;;;;;5071905;28;20043;-46
2023/08/18 13:24:25;;;;;;;20.38;2.67;;;;;;;;;;5071797;28;20382;-46
2023/08/18 13:26:52;;;;;;;15.93;2.25;;;;;;;;;;5071669;28;20025;-46
2023/08/18 13:29:19;;;;;;;12.38;1.85;;;;;;;;;;5071776;28;20028;-46
2023/08/18 13:31:48;;;;;;;7.60;1.95;;;;;;;;;;5071760;28;20016;-46
2023/08/18 13:34:16;;;;;;;5.95;1.63;;;;;;;;;;5071560;28;20067;-46
2023/08/18 13:36:43;;;;;;;12.80;2.05;;;;;;;;;;5071473;28;20127;-46
2023/08/18 13:39:10;;;;;;;8.10;1.52;;;;;;;;;;5071713;28;20074;-46
2023/08/18 13:41:38;;;;;;;12.85;1.95;;;;;;;;;;5071773;28;20025;-36
2023/08/18 13:44:05;;;;;;;7.72;1.50;;;;;;;;;;5070287;28;20029;-36
2023/08/18 13:46:32;;;;;;;7.82;1.15;;;;;;;;;;5071925;28;20067;-36
2023/08/18 13:48:59;;;;;;;8.23;1.50;;;;;;;;;;5071703;28;20029;-36
2023/08/18 13:51:26;;;;;;;11.65;1.75;;;;;;;;;;5071527;28;20017;-36
2023/08/18 13:53:53;;;;;;;10.10;1.42;;;;;;;;;;5071479;28;20020;-36
2023/08/18 13:56:20;;;;;;;9.23;1.70;;;;;;;;;;5071528;28;20044;-37
2023/08/18 13:58:47;;;;;;;7.13;1.40;;;;;;;;;;5071473;28;20032;-36
2023/08/18 14:01:14;;;;;;;10.93;1.52;;;;;;;;;;5071467;28;20032;-36
2023/08/18 14:03:41;;;;;;;6.25;1.33;;;;;;;;;;5058190;28;20029;-32
2023/08/18 14:06:08;;;;;;;13.02;1.75;;;;;;;;;;5051413;28;20033;-32
2023/08/18 14:08:35;;;;;;;7.60;1.52;;;;;;;;;;5051305;28;20554;-32
2023/08/18 14:11:03;;;;;;;11.35;1.27;;;;;;;;;;5051284;28;20025;-32
2023/08/18 14:13:30;;;;;;;7.70;1.20;;;;;;;;;;5051203;28;20028;-32
2023/08/18 14:15:57;;;;;;;5.50;1.48;;;;;;;;;;5051161;28;20414;-32
2023/08/18 14:18:24;;;;;;;11.45;2.10;;;;;;;;;;5052488;28;20033;-32
2023/08/18 14:20:51;;;;;;;10.70;1.88;;;;;;;;;;5055359;28;20099;-32
2023/08/18 14:23:18;;;;;;;8.32;2.28;;;;;;;;;;5055439;28;20425;-32
2023/08/18 14:25:46;;;;;;;12.40;2.20;;;;;;;;;;5055279;28;20060;-32
2023/08/18 14:28:13;;;;;;;11.18;1.80;;;;;;;;;;5055229;28;20029;-32
2023/08/18 14:30:40;;;;;;;9.55;2.10;;;;;;;;;;5055172;28;20025;-32
2023/08/18 14:33:07;;;;;;;10.35;1.90;;;;;;;;;;5053732;28;20108;-32
2023/08/18 14:35:35;;;;;;;13.57;2.03;;;;;;;;;;5055003;28;20088;-32
2023/08/18 14:38:03;;;;;;;6.10;1.80;;;;;;;;;;5055344;28;20024;-32